Time;durP1;ratioP1;P1;durP2;ratioP2;P2;SDS_P1;SDS_P2;PMS_P1;PMS_P2;Temp;Humidity;BMP_temperature;BMP_pressure;BME280_temperature;BME280_humidity;BME280_pressure;Samples;Min_cycle;Max_cycle;Signal;HPM_P1;HPM_P2
2022/11/16 02:19:52;;;;;;;6.80;4.00;;;;;;;4.33;100.00;99298.77;1740670;81;21098;-77
2022/11/16 02:22:53;;;;;;;6.53;3.77;;;;;;;4.36;100.00;99293.63;1744435;81;21165;-77
2022/11/16 02:25:35;;;;;;;6.93;3.93;;;;;;;4.36;100.00;99298.98;1742098;82;21069;-78
2022/11/16 02:28:29;;;;;;;5.93;3.67;;;;;;;4.40;100.00;99300.86;1744257;82;21034;-77
2022/11/16 02:30:57;;;;;;;5.67;3.93;;;;;;;4.41;100.00;99295.36;1696122;82;21030;-76
2022/11/16 02:33:28;;;;;;;8.30;4.07;;;;;;;4.43;100.00;99290.69;1687922;83;21123;-77
2022/11/16 02:35:59;;;;;;;6.50;3.93;;;;;;;4.45;100.00;99284.69;1700458;83;21058;-77
2022/11/16 02:38:29;;;;;;;4.53;3.87;;;;;;;4.47;100.00;99284.54;1691203;83;21034;-75
2022/11/16 02:41:00;;;;;;;8.73;4.10;;;;;;;4.48;100.00;99277.70;1696842;83;21070;-77
2022/11/16 02:43:37;;;;;;;6.70;4.00;;;;;;;4.49;100.00;99265.98;1684104;83;21188;-77
2022/11/16 02:46:08;;;;;;;6.87;4.10;;;;;;;4.50;100.00;99274.38;1670237;85;21146;-77
2022/11/16 02:48:41;;;;;;;10.63;4.00;;;;;;;4.51;100.00;99278.72;1683190;85;21053;-75
2022/11/16 02:51:09;;;;;;;6.67;3.90;;;;;;;4.51;100.00;99264.50;1686325;84;21148;-77
2022/11/16 02:53:43;;;;;;;7.57;4.30;;;;;;;4.51;100.00;99267.17;1656898;85;21041;-77
2022/11/16 02:56:13;;;;;;;5.97;3.80;;;;;;;4.51;100.00;99259.97;1652202;85;21139;-77
2022/11/16 02:58:40;;;;;;;8.70;4.07;;;;;;;4.56;100.00;99262.21;1679730;85;21074;-76
2022/11/16 03:01:14;;;;;;;8.83;4.20;;;;;;;4.56;100.00;99255.52;1682825;85;21097;-77
2022/11/16 03:03:52;;;;;;;7.93;4.43;;;;;;;4.54;100.00;99251.65;1600014;89;21063;-75
2022/11/16 03:06:32;;;;;;;6.17;3.80;;;;;;;4.54;100.00;99256.17;1599226;87;21101;-77
2022/11/16 03:09:09;;;;;;;5.03;3.40;;;;;;;4.55;100.00;99239.95;1575744;89;21095;-76
2022/11/16 03:12:00;;;;;;;5.70;3.57;;;;;;;4.58;100.00;99235.29;1593400;89;21077;-77
2022/11/16 03:14:55;;;;;;;7.20;4.17;;;;;;;4.60;100.00;99234.62;1543861;92;21093;-78
2022/11/16 03:17:42;;;;;;;7.43;4.20;;;;;;;4.62;100.00;99221.45;1553318;92;21079;-77
2022/11/16 03:20:19;;;;;;;7.67;4.63;;;;;;;4.63;100.00;99211.06;1551739;92;21123;-76
2022/11/16 03:22:52;;;;;;;10.13;4.60;;;;;;;4.64;100.00;99224.81;1553375;92;21055;-76
2022/11/16 03:25:19;;;;;;;7.55;4.28;;;;;;;4.60;100.00;99214.55;1551263;90;21094;-76
2022/11/16 03:28:04;;;;;;;7.60;4.10;;;;;;;4.61;100.00;99202.86;1507258;93;21073;-77
2022/11/16 03:30:35;;;;;;;6.87;3.92;;;;;;;4.63;100.00;99209.73;1509603;93;21135;-75
2022/11/16 03:33:28;;;;;;;8.13;4.53;;;;;;;4.64;100.00;99227.97;1546887;92;21105;-77
2022/11/16 03:36:02;;;;;;;9.67;4.87;;;;;;;4.62;100.00;99220.11;1554222;92;21114;-76
2022/11/16 03:38:30;;;;;;;6.83;4.50;;;;;;;4.61;100.00;99207.70;1555007;90;21086;-77
2022/11/16 03:41:01;;;;;;;7.10;3.97;;;;;;;4.62;100.00;99207.20;1522799;92;21087;-77
2022/11/16 03:43:30;;;;;;;7.37;4.22;;;;;;;4.62;100.00;99201.37;1566602;90;21561;-77
2022/11/16 03:45:57;;;;;;;6.57;3.93;;;;;;;4.63;100.00;99201.70;1571568;90;21159;-77
2022/11/16 03:48:25;;;;;;;9.43;4.37;;;;;;;4.64;100.00;99198.03;1562994;91;21560;-76
2022/11/16 03:50:51;;;;;;;7.73;4.33;;;;;;;4.65;100.00;99205.05;1527564;93;21089;-77
2022/11/16 03:53:19;;;;;;;8.17;4.37;;;;;;;4.65;100.00;99201.04;1525291;94;21130;-77
2022/11/16 03:55:46;;;;;;;6.57;3.70;;;;;;;4.69;100.00;99196.22;1541242;93;21540;-77
2022/11/16 03:58:17;;;;;;;8.83;3.93;;;;;;;4.72;100.00;99194.08;1566932;90;21070;-76
2022/11/16 04:00:44;;;;;;;8.63;4.23;;;;;;;4.73;100.00;99195.77;1551307;91;21082;-76
2022/11/16 04:03:11;;;;;;;9.73;4.23;;;;;;;4.74;100.00;99188.06;1538982;92;21152;-77
2022/11/16 04:25:10;;;;;;;;;;;;;;;4.79;100.00;99154.63;1654156;86;21049;-78
2022/11/16 04:30:23;;;;;;;11.13;5.50;;;;;;;4.84;100.00;99152.33;1645975;86;21018;-78
2022/11/16 04:38:23;;;;;;;11.20;5.63;;;;;;;4.86;100.00;99154.35;1650953;86;21053;-78
2022/11/16 04:40:49;;;;;;;13.23;6.40;;;;;;;4.86;100.00;99151.67;1645647;86;21050;-78
2022/11/16 04:43:17;;;;;;;11.20;5.17;;;;;;;4.87;100.00;99154.20;1643102;86;21049;-79
2022/11/16 04:48:31;;;;;;;12.87;6.10;;;;;;;4.87;100.00;99149.32;1646642;86;21118;-77
2022/11/16 10:00:23;;;;;;;21.00;8.83;;;;;;;6.71;100.00;99874.66;1820653;77;23519;-74
2022/11/16 10:03:11;;;;;;;24.47;9.43;;;;;;;6.81;100.00;99558.31;1806515;78;21010;-72
2022/11/16 10:06:03;;;;;;;28.50;11.17;;;;;;;6.89;100.00;99480.94;1763701;80;21042;-77
2022/11/16 10:08:42;;;;;;;24.30;9.30;;;;;;;6.97;100.00;99446.52;1739113;82;20998;-82
2022/11/16 10:11:45;;;;;;;17.93;8.47;;;;;;;7.03;100.00;99414.47;1789783;79;21003;-75
2022/11/16 10:14:37;;;;;;;17.13;7.27;;;;;;;7.12;100.00;99388.92;1793053;79;21023;-73
2022/11/16 10:17:44;;;;;;;20.73;9.03;;;;;;;7.19;100.00;99382.74;1799818;79;21065;-72
2022/11/16 10:20:38;;;;;;;19.20;8.33;;;;;;;7.30;100.00;99365.95;1796233;79;21002;-74
2022/11/16 10:23:08;;;;;;;;;;;;;;;7.35;100.00;99362.27;1796070;79;21007;-75
2022/11/16 10:25:43;;;;;;;17.73;8.40;;;;;;;7.39;100.00;99344.27;1785885;80;20130;-74
2022/11/16 10:28:24;;;;;;;20.00;9.10;;;;;;;7.45;100.00;99338.71;1787564;80;21088;-74
2022/11/16 10:31:04;;;;;;;82.30;26.23;;;;;;;7.50;100.00;99330.16;1733038;83;20991;-74
2022/11/16 10:33:35;;;;;;;34.67;12.43;;;;;;;7.54;100.00;99320.24;1734049;83;21571;-74
2022/11/16 10:36:05;;;;;;;63.77;21.43;;;;;;;7.56;100.00;99312.84;1728089;83;21057;-75
2022/11/16 10:38:32;;;;;;;45.13;17.77;;;;;;;7.56;100.00;99302.55;1726009;82;21070;-71
2022/11/16 10:41:39;;;;;;;32.97;13.77;;;;;;;7.57;100.00;99292.14;1726423;83;21054;-74
2022/11/16 10:44:13;;;;;;;23.13;10.20;;;;;;;7.57;100.00;99280.87;1701499;84;21579;-74
2022/11/16 10:46:43;;;;;;;20.13;9.20;;;;;;;7.59;100.00;99272.12;1695350;84;20962;-74
2022/11/16 11:46:25;;;;;;;36.53;16.80;;;;;;;7.63;100.00;99173.58;1664168;84;21164;-74
2022/11/16 11:48:57;;;;;;;26.00;12.57;;;;;;;7.63;100.00;99160.13;1665465;86;21119;-72
2022/11/16 11:51:32;;;;;;;20.40;9.68;;;;;;;7.65;100.00;99153.57;1665752;86;21116;-73
2022/11/16 11:54:01;;;;;;;23.83;9.90;;;;;;;7.73;100.00;99165.63;1613687;89;21024;-73
2022/11/16 11:56:30;;;;;;;20.07;9.97;;;;;;;7.82;100.00;99165.09;1613582;89;21152;-73
2022/11/16 11:58:57;;;;;;;17.63;8.53;;;;;;;7.89;100.00;99171.45;1613384;89;21573;-73
2022/11/16 12:01:47;;;;;;;16.17;7.50;;;;;;;7.93;100.00;99166.56;1613262;89;21024;-71
2022/11/16 12:04:40;;;;;;;20.27;10.33;;;;;;;7.96;100.00;99167.56;1654610;86;21541;-73
2022/11/16 12:07:45;;;;;;;19.67;9.90;;;;;;;7.98;100.00;99154.27;1660966;86;21889;-72
2022/11/16 12:10:25;;;;;;;19.03;9.97;;;;;;;8.02;100.00;99155.25;1633432;86;21086;-74
2022/11/16 12:13:12;;;;;;;23.57;11.33;;;;;;;8.04;100.00;99149.17;1624885;86;21065;-75
2022/11/16 12:16:08;;;;;;;26.67;13.50;;;;;;;8.09;100.00;99152.17;1613673;89;21204;-72
2022/11/16 12:19:03;;;;;;;22.50;10.50;;;;;;;8.13;100.00;99138.71;1616700;89;21254;-71
2022/11/16 12:21:54;;;;;;;17.70;8.80;;;;;;;8.15;100.00;99140.71;1616591;89;21073;-74
2022/11/16 12:24:59;;;;;;;18.17;8.63;;;;;;;8.16;100.00;99139.68;1588863;90;21144;-73
2022/11/16 12:27:43;;;;;;;18.03;8.47;;;;;;;8.17;100.00;99146.23;1592296;90;21074;-73
2022/11/16 12:30:20;;;;;;;24.53;10.27;;;;;;;8.18;100.00;99147.92;1592245;89;21082;-72
2022/11/16 12:33:17;;;;;;;15.23;7.53;;;;;;;8.19;100.00;99148.76;1591967;90;21079;-72
2022/11/16 12:36:07;;;;;;;16.87;7.97;;;;;;;8.20;100.00;99146.89;1567488;90;21067;-72
2022/11/16 12:38:43;;;;;;;14.53;7.13;;;;;;;8.20;100.00;99144.20;1595313;90;21631;-69
2022/11/16 12:41:33;;;;;;;14.03;6.87;;;;;;;8.17;100.00;99144.06;1596298;90;21086;-73
2022/11/16 12:44:11;;;;;;;17.33;7.77;;;;;;;8.16;100.00;99142.38;1593673;90;21042;-73
2022/11/16 12:59:25;;;;;;;17.62;8.95;;;;;;;8.48;100.00;99442.27;1836925;77;23509;-74
2022/11/16 13:02:35;;;;;;;13.75;6.70;;;;;;;8.48;100.00;99110.39;1780279;80;21032;-75
2022/11/16 13:05:11;;;;;;;13.35;6.35;;;;;;;8.45;100.00;99097.79;1743270;82;21468;-73
2022/11/16 13:07:43;;;;;;;12.35;6.08;;;;;;;8.41;100.00;99105.36;1741432;81;20971;-73
2022/11/16 13:10:34;;;;;;;16.12;6.70;;;;;;;8.36;100.00;99107.23;1616056;89;21060;-73
2022/11/16 13:13:06;;;;;;;13.90;7.05;;;;;;;8.30;100.00;99101.20;1611859;89;21135;-73
2022/11/16 13:16:17;;;;;;;;;;;;;;;;;;;;;
2022/11/16 13:18:43;;;;;;;11.93;5.70;;;;;;;8.26;100.00;99104.45;1533340;91;21087;-73
2022/11/16 13:21:15;;;;;;;15.47;6.33;;;;;;;8.20;100.00;99108.70;1533634;94;21071;-71
2022/11/16 13:24:21;;;;;;;12.77;5.80;;;;;;;8.16;100.00;99112.27;1539246;93;21218;-74
2022/11/16 13:27:11;;;;;;;12.10;5.50;;;;;;;8.14;100.00;99108.92;1539420;93;21132;-74
2022/11/16 13:30:10;;;;;;;12.10;5.37;;;;;;;8.12;100.00;99104.19;1539187;93;21077;-73
2022/11/16 13:33:04;;;;;;;13.80;5.80;;;;;;;8.13;100.00;99109.92;1515600;95;21106;-74
2022/11/16 13:35:37;;;;;;;13.97;6.00;;;;;;;8.12;100.00;99113.61;1517882;94;21081;-74
2022/11/16 13:38:12;;;;;;;14.93;7.73;;;;;;;8.12;100.00;99116.83;1515950;94;21099;-75
2022/11/16 13:40:39;;;;;;;15.87;7.23;;;;;;;8.11;100.00;99114.66;1517842;94;21124;-78
2022/11/16 13:43:16;;;;;;;15.03;6.83;;;;;;;8.12;100.00;99119.00;1518839;94;21563;-76
2022/11/16 13:45:53;;;;;;;17.00;6.87;;;;;;;8.11;100.00;99125.42;1517094;94;21108;-80
2022/11/16 13:48:29;;;;;;;16.60;7.10;;;;;;;8.10;100.00;99125.59;1514911;94;21157;-76
2022/11/16 13:50:59;;;;;;;17.57;7.33;;;;;;;8.09;100.00;99132.84;1517600;94;21057;-72
2022/11/16 13:53:32;;;;;;;20.80;8.83;;;;;;;8.08;100.00;99136.54;1518630;94;21125;-73
2022/11/16 13:56:00;;;;;;;19.20;9.28;;;;;;;8.09;100.00;99144.96;1518076;94;21130;-73
2022/11/16 13:58:28;;;;;;;17.77;8.67;;;;;;;8.07;100.00;99144.27;1511278;94;21077;-73
2022/11/16 14:00:59;;;;;;;25.47;10.63;;;;;;;8.05;100.00;99146.83;1503531;95;21094;-73
2022/11/16 14:03:37;;;;;;;20.33;9.27;;;;;;;8.04;100.00;99138.41;1470742;98;21109;-72
2022/11/16 14:06:00;;;;;;;19.13;8.97;;;;;;;8.02;100.00;99145.34;1497215;92;21166;-70
2022/11/16 14:08:38;;;;;;;17.13;8.37;;;;;;;7.99;100.00;99147.03;1528720;92;21134;-73
2022/11/16 14:11:33;;;;;;;17.10;7.80;;;;;;;7.98;100.00;99142.16;1552025;92;21119;-71
2022/11/16 14:14:06;;;;;;;18.00;8.17;;;;;;;7.96;100.00;99145.51;1527537;91;21133;-72
2022/11/16 14:16:48;;;;;;;16.95;8.33;;;;;;;7.94;100.00;99146.72;1582919;90;21091;-72
2022/11/16 14:19:47;;;;;;;20.33;9.57;;;;;;;7.91;100.00;99146.54;1583770;90;21068;-71
2022/11/16 14:22:22;;;;;;;16.50;8.43;;;;;;;7.89;100.00;99139.16;1525395;91;21106;-72
2022/11/16 14:24:55;;;;;;;15.83;7.80;;;;;;;7.84;100.00;99143.39;1530501;93;21073;-72
2022/11/16 14:27:45;;;;;;;18.30;7.50;;;;;;;7.77;100.00;99156.22;1498966;95;21072;-72
2022/11/16 14:30:31;;;;;;;17.47;8.10;;;;;;;7.74;100.00;99153.87;1504833;93;21133;-71
2022/11/16 14:32:58;;;;;;;16.17;7.37;;;;;;;7.69;100.00;99156.23;1504858;95;21098;-68
2022/11/16 14:35:37;;;;;;;18.73;8.57;;;;;;;7.67;100.00;99158.78;1505510;95;21048;-71
2022/11/16 14:38:09;;;;;;;20.70;9.80;;;;;;;7.65;100.00;99162.13;1505871;95;21578;-72
2022/11/16 14:40:48;;;;;;;20.33;9.63;;;;;;;7.61;100.00;99165.67;1480010;97;21121;-72
2022/11/16 14:43:26;;;;;;;19.87;9.50;;;;;;;7.57;100.00;99173.25;1479557;97;21154;-71
2022/11/16 14:46:08;;;;;;;18.83;8.80;;;;;;;7.55;100.00;99169.07;1480357;95;21093;-72
2022/11/16 14:48:43;;;;;;;19.87;9.70;;;;;;;7.53;100.00;99179.17;1478858;97;21142;-72
2022/11/16 14:51:17;;;;;;;18.00;8.97;;;;;;;7.52;100.00;99175.62;1501899;94;21105;-75
2022/11/16 14:53:54;;;;;;;19.83;8.60;;;;;;;7.52;100.00;99180.17;1527177;94;21130;-73
2022/11/16 14:56:22;;;;;;;20.37;8.73;;;;;;;7.52;100.00;99182.86;1517799;94;21128;-71
2022/11/16 14:58:55;;;;;;;22.17;8.53;;;;;;;7.48;100.00;99186.91;1531373;90;21129;-71
2022/11/16 15:01:31;;;;;;;16.83;8.20;;;;;;;7.46;100.00;99184.39;1576264;89;21070;-72
2022/11/16 15:04:03;;;;;;;14.63;7.17;;;;;;;7.44;100.00;99185.08;1550552;91;21058;-71
2022/11/16 15:06:49;;;;;;;17.53;8.33;;;;;;;7.44;100.00;99185.08;1571889;89;21039;-71
2022/11/16 15:09:27;;;;;;;16.23;8.03;;;;;;;7.44;100.00;99179.70;1582030;90;21157;-72
2022/11/16 15:14:49;;;;;;;21.40;8.97;;;;;;;7.44;100.00;99191.80;1583129;89;21034;-71
2022/11/16 15:17:22;;;;;;;22.13;8.73;;;;;;;7.44;100.00;99199.01;1495857;95;21079;-72
2022/11/16 15:20:03;;;;;;;19.90;8.03;;;;;;;7.44;100.00;99196.31;1486431;96;21108;-72
2022/11/16 15:22:31;;;;;;;17.20;8.43;;;;;;;7.43;100.00;99199.52;1491377;96;21087;-73
2022/11/16 15:25:00;;;;;;;17.20;8.03;;;;;;;7.43;100.00;99198.17;1492230;96;21109;-72
2022/11/16 15:27:39;;;;;;;17.37;8.57;;;;;;;7.44;100.00;99202.56;1491187;96;21163;-71
2022/11/16 15:30:19;;;;;;;17.60;8.00;;;;;;;7.45;100.00;99205.56;1508160;92;21116;-72
2022/11/16 15:32:49;;;;;;;16.53;8.13;;;;;;;7.45;100.00;99206.08;1522644;94;21190;-71
2022/11/16 15:35:23;;;;;;;20.07;9.13;;;;;;;7.43;100.00;99201.38;1544744;92;21077;-72
2022/11/16 15:38:23;;;;;;;17.50;8.83;;;;;;;7.44;100.00;99197.17;1563449;91;21048;-71
2022/11/16 15:40:59;;;;;;;16.30;7.57;;;;;;;7.45;100.00;99189.94;1560790;92;21620;-73
2022/11/16 15:43:35;;;;;;;17.10;7.70;;;;;;;7.43;100.00;99194.14;1560951;92;21043;-71
2022/11/16 15:46:02;;;;;;;16.13;7.43;;;;;;;7.44;100.00;99199.87;1562509;92;21154;-72
2022/11/16 15:48:29;;;;;;;16.37;8.03;;;;;;;7.46;100.00;99207.77;1542932;92;21112;-72
2022/11/16 15:51:13;;;;;;;16.80;7.47;;;;;;;7.45;100.00;99203.39;1548110;92;21079;-72
2022/11/16 15:53:44;;;;;;;17.03;8.20;;;;;;;7.44;100.00;99213.31;1560854;92;21163;-73
2022/11/16 15:56:30;;;;;;;18.03;8.13;;;;;;;7.45;100.00;99204.73;1562535;92;21107;-71
2022/11/16 15:59:01;;;;;;;17.93;8.33;;;;;;;7.44;100.00;99209.28;1588093;89;21177;-71
2022/11/16 16:01:28;;;;;;;18.63;8.70;;;;;;;7.45;100.00;99210.11;1585596;89;21062;-71
2022/11/16 16:04:01;;;;;;;20.73;8.67;;;;;;;7.45;100.00;99219.02;1602541;89;21071;-71
2022/11/16 16:06:56;;;;;;;16.40;8.10;;;;;;;7.41;100.00;99208.27;1617206;85;21046;-72
2022/11/16 16:09:39;;;;;;;24.83;10.43;;;;;;;7.39;100.00;99209.78;1685700;85;21099;-72
2022/11/16 16:12:22;;;;;;;14.85;7.35;;;;;;;7.39;100.00;99209.78;1679592;85;21022;-71
2022/11/16 16:14:50;;;;;;;18.57;7.90;;;;;;;7.36;100.00;99205.25;1631570;88;21018;-71
2022/11/16 16:17:28;;;;;;;19.23;9.03;;;;;;;7.35;100.00;99199.05;1631465;86;21015;-72
2022/11/16 16:20:02;;;;;;;16.67;7.63;;;;;;;7.35;100.00;99200.39;1631537;88;21544;-73
2022/11/16 16:22:34;;;;;;;20.47;9.07;;;;;;;7.38;100.00;99202.75;1602066;89;21082;-71
2022/11/16 16:25:04;;;;;;;16.67;7.50;;;;;;;7.40;100.00;99200.72;1599527;90;21106;-70
2022/11/16 16:27:31;;;;;;;17.87;7.93;;;;;;;7.41;100.00;99208.27;1599361;90;21985;-71
2022/11/16 16:30:02;;;;;;;15.30;7.43;;;;;;;7.41;100.00;99209.61;1591334;90;21201;-71
2022/11/16 16:32:32;;;;;;;14.23;7.47;;;;;;;7.43;100.00;99209.45;1589893;90;21569;-72
2022/11/16 16:35:06;;;;;;;15.50;6.97;;;;;;;7.40;100.00;99206.09;1592136;90;21100;-72
2022/11/16 16:40:03;;;;;;;17.17;6.50;;;;;;;7.39;100.00;99202.23;1557917;91;21159;-71
2022/11/16 16:42:30;;;;;;;16.13;7.20;;;;;;;7.38;100.00;99202.75;1577127;91;21140;-71
2022/11/16 16:44:58;;;;;;;17.80;7.23;;;;;;;7.38;100.00;99202.75;1577078;91;21048;-72
2022/11/16 16:47:25;;;;;;;14.37;6.40;;;;;;;7.38;100.00;99200.53;1577158;91;21055;-72
2022/11/16 16:49:52;;;;;;;15.23;7.27;;;;;;;7.37;100.00;99204.25;1577182;90;21240;-71
2022/11/16 16:52:20;;;;;;;15.33;7.30;;;;;;;7.37;100.00;99202.91;1577262;90;21052;-70
2022/11/16 16:54:48;;;;;;;14.27;6.57;;;;;;;7.35;100.00;99207.11;1577314;91;21572;-72
2022/11/16 16:57:16;;;;;;;16.93;7.67;;;;;;;7.35;100.00;99209.80;1577290;91;21131;-70
2022/11/16 16:59:47;;;;;;;16.40;7.60;;;;;;;7.33;100.00;99209.14;1537825;93;21109;-70
2022/11/16 17:02:14;;;;;;;16.63;8.00;;;;;;;7.32;100.00;99213.34;1541098;90;21140;-71
2022/11/16 17:04:42;;;;;;;17.73;8.13;;;;;;;7.33;100.00;99206.93;1593910;90;21592;-70
2022/11/16 17:07:10;;;;;;;18.43;7.87;;;;;;;7.32;100.00;99201.23;1593700;90;21098;-71
2022/11/16 17:09:37;;;;;;;19.00;7.70;;;;;;;7.30;100.00;99205.44;1593785;90;21111;-69
2022/11/16 17:12:04;;;;;;;18.17;7.00;;;;;;;7.31;100.00;99200.89;1592406;90;21091;-71
2022/11/16 17:14:32;;;;;;;14.67;6.93;;;;;;;7.31;100.00;99203.58;1578027;91;21099;-71
2022/11/16 17:17:00;;;;;;;14.63;6.27;;;;;;;7.30;100.00;99208.64;1578160;91;21106;-71
2022/11/16 17:19:28;;;;;;;13.30;6.10;;;;;;;7.28;100.00;99199.88;1563009;91;21083;-72
2022/11/16 17:21:55;;;;;;;11.80;5.93;;;;;;;7.28;100.00;99200.73;1551054;92;21122;-71
2022/11/16 17:24:22;;;;;;;13.47;6.37;;;;;;;7.27;100.00;99207.63;1551071;92;21074;-72
2022/11/16 17:26:50;;;;;;;13.97;6.60;;;;;;;7.26;100.00;99206.80;1527396;94;21101;-72
2022/11/16 17:29:17;;;;;;;14.07;6.60;;;;;;;7.26;100.00;99206.80;1551613;92;21102;-71
2022/11/16 17:31:46;;;;;;;14.87;6.20;;;;;;;7.25;100.00;99198.89;1552249;92;21111;-72
2022/11/16 17:34:13;;;;;;;15.70;6.77;;;;;;;7.22;100.00;99202.27;1562846;90;21087;-71
2022/11/16 17:36:41;;;;;;;15.27;6.57;;;;;;;7.22;100.00;99193.34;1662358;84;21551;-71
2022/11/16 17:39:08;;;;;;;15.07;7.23;;;;;;;7.19;100.00;99186.46;1709408;84;21042;-71
2022/11/16 17:41:36;;;;;;;13.23;6.23;;;;;;;7.20;100.00;99185.95;1709248;84;21030;-70
2022/11/16 17:44:05;;;;;;;14.33;6.60;;;;;;;7.16;100.00;99184.11;1709356;83;21508;-71
2022/11/16 17:46:31;;;;;;;13.47;6.80;;;;;;;7.15;100.00;99183.79;1709621;83;21519;-72
2022/11/16 17:48:58;;;;;;;14.07;6.50;;;;;;;7.15;100.00;99182.45;1689913;84;21512;-71
2022/11/16 17:51:25;;;;;;;14.07;6.80;;;;;;;7.15;100.00;99189.65;1709949;83;21031;-71
2022/11/16 17:53:54;;;;;;;12.97;6.53;;;;;;;7.13;100.00;99186.30;1709392;82;21520;-71
2022/11/16 17:56:25;;;;;;;13.43;6.57;;;;;;;7.12;100.00;99189.98;1709724;83;21023;-70
2022/11/16 17:58:53;;;;;;;15.50;6.33;;;;;;;7.12;100.00;99191.33;1697954;83;21061;-71
2022/11/16 18:01:23;;;;;;;13.40;6.03;;;;;;;7.11;100.00;99186.97;1714108;84;21022;-72
2022/11/16 18:03:50;;;;;;;11.50;5.70;;;;;;;7.10;100.00;99187.97;1714431;83;21026;-71
2022/11/16 18:06:19;;;;;;;11.30;5.70;;;;;;;7.09;100.00;99180.94;1714425;83;21026;-71
2022/11/16 18:08:46;;;;;;;13.00;6.27;;;;;;;7.08;100.00;99185.45;1714882;83;21042;-72
2022/11/16 22:33:43;;;;;;;51.60;22.97;;;;;;;6.01;100.00;99208.14;1733318;82;22910;-73
2022/11/16 22:36:12;;;;;;;36.20;17.00;;;;;;;6.21;100.00;98987.75;1701910;84;21090;-71
2022/11/16 22:38:42;;;;;;;43.57;18.47;;;;;;;6.23;100.00;98967.80;1701769;84;21094;-72
2022/11/16 22:41:09;;;;;;;38.17;20.13;;;;;;;6.31;100.00;98947.31;1702069;84;21081;-73
2022/11/16 22:43:36;;;;;;;39.17;19.73;;;;;;;6.35;100.00;98939.24;1701776;84;21058;-73
2022/11/16 22:46:05;;;;;;;31.77;16.90;;;;;;;6.36;100.00;98931.02;1702653;84;21037;-72
2022/11/16 22:48:36;;;;;;;30.00;14.90;;;;;;;6.35;100.00;98915.91;1702047;84;21062;-73
2022/11/16 22:51:12;;;;;;;38.17;19.33;;;;;;;6.37;100.00;98903.66;1637012;87;21530;-71
2022/11/16 22:53:40;;;;;;;40.47;18.53;;;;;;;6.36;100.00;98890.75;1635151;88;21093;-72
2022/11/16 22:56:07;;;;;;;41.63;19.73;;;;;;;6.34;100.00;98867.27;1636844;88;21033;-73
2022/11/16 22:58:36;;;;;;;46.50;23.57;;;;;;;6.32;100.00;98859.89;1636711;88;21042;-73
2022/11/16 23:01:04;;;;;;;29.57;14.87;;;;;;;6.33;100.00;98856.18;1636934;87;21054;-74
2022/11/16 23:03:32;;;;;;;28.23;12.50;;;;;;;6.36;100.00;98853.67;1636723;88;21062;-74
2022/11/16 23:05:59;;;;;;;29.77;11.47;;;;;;;6.40;100.00;98856.33;1636800;88;21061;-73
2022/11/16 23:08:28;;;;;;;20.03;9.07;;;;;;;6.41;100.00;98852.13;1636998;88;21562;-73
2022/11/16 23:16:42;;;;;;;24.60;10.97;;;;;;;6.46;100.00;98830.11;1636814;88;21522;-74
2022/11/16 23:28:06;;;;;;;27.73;14.77;;;;;;;6.53;100.00;98824.38;1636999;88;20993;-75
2022/11/16 23:30:34;;;;;;;35.57;17.73;;;;;;;6.56;100.00;98823.20;1542776;93;21087;-74
2022/11/16 23:33:01;;;;;;;36.30;20.07;;;;;;;6.56;100.00;98819.17;1544725;92;21232;-75
2022/11/16 23:35:27;;;;;;;35.67;19.83;;;;;;;6.59;100.00;98818.31;1545213;92;21147;-74
2022/11/16 23:38:00;;;;;;;35.37;17.97;;;;;;;6.60;100.00;98815.94;1548428;90;21119;-75
2022/11/16 23:40:38;;;;;;;28.63;13.50;;;;;;;6.61;100.00;98811.43;1548689;93;21035;-74
2022/11/16 23:45:50;;;;;;;20.47;9.07;;;;;;;6.64;100.00;98803.03;1548779;93;21341;-74
2022/11/16 23:48:17;;;;;;;19.73;8.70;;;;;;;6.65;100.00;98804.69;1548632;93;21039;-74
2022/11/16 23:50:45;;;;;;;15.10;6.60;;;;;;;6.68;100.00;98805.69;1548479;93;21070;-75
2022/11/16 23:53:12;;;;;;;13.50;6.23;;;;;;;6.70;100.00;98802.83;1548791;92;21067;-74
2022/11/16 23:55:38;;;;;;;14.67;6.00;;;;;;;6.71;100.00;98796.42;1551222;92;21083;-75
2022/11/16 23:58:06;;;;;;;16.73;6.33;;;;;;;6.71;100.00;98794.59;1551203;92;21067;-74
